Time;durP1;ratioP1;P1;durP2;ratioP2;P2;SDS_P1;SDS_P2;PMS_P1;PMS_P2;Temp;Humidity;BMP_temperature;BMP_pressure;BME280_temperature;BME280_humidity;BME280_pressure;Samples;Min_cycle;Max_cycle;Signal;HPM_P1;HPM_P2
2021/11/20 00:00:19;;;;;;;47.65;39.20;;;5.10;99.90;;;;;;4159746;28;20128;-52
2021/11/20 00:02:29;;;;;;;23.58;21.15;;;5.00;99.90;;;;;;4159819;28;20072;-52
2021/11/20 00:04:32;;;;;;;29.25;23.45;;;5.10;99.90;;;;;;4149445;28;20041;-51
2021/11/20 00:06:37;;;;;;;24.42;21.92;;;5.10;99.90;;;;;;4160751;28;20037;-52
2021/11/20 00:08:40;;;;;;;26.95;20.50;;;5.10;99.90;;;;;;4160045;28;20529;-51
2021/11/20 00:10:45;;;;;;;30.20;22.63;;;5.10;99.90;;;;;;4160646;28;20740;-52
2021/11/20 00:12:47;;;;;;;23.35;20.83;;;5.10;99.90;;;;;;4159843;28;20075;-52
2021/11/20 00:14:50;;;;;;;30.48;24.77;;;5.10;99.90;;;;;;4152576;28;20669;-52
2021/11/20 00:16:54;;;;;;;29.05;23.63;;;5.20;99.90;;;;;;4157250;28;20041;-52
2021/11/20 00:18:57;;;;;;;24.88;20.42;;;5.20;99.90;;;;;;4156500;28;20037;-52
2021/11/20 00:21:03;;;;;;;34.80;22.35;;;5.20;99.90;;;;;;4157166;28;20515;-52
2021/11/20 00:23:06;;;;;;;32.22;25.23;;;5.20;99.90;;;;;;4160133;28;20580;-52
2021/11/20 00:25:19;;;;;;;32.28;24.13;;;5.10;99.90;;;;;;4159999;28;20052;-52
2021/11/20 00:27:25;;;;;;;37.05;25.33;;;4.90;99.90;;;;;;4160173;28;20073;-50
2021/11/20 00:29:39;;;;;;;31.75;24.25;;;4.80;99.90;;;;;;4156681;28;20482;-51
2021/11/20 00:31:49;;;;;;;32.03;25.00;;;4.70;99.90;;;;;;4175121;28;20487;-51
2021/11/20 00:33:51;;;;;;;23.67;21.40;;;4.80;99.90;;;;;;4155280;28;20057;-52
2021/11/20 00:35:56;;;;;;;30.52;22.13;;;4.80;99.90;;;;;;4158953;28;20473;-51
2021/11/20 00:37:58;;;;;;;31.83;24.27;;;4.90;99.90;;;;;;4159527;28;20469;-51
2021/11/20 00:40:01;;;;;;;29.98;24.20;;;4.90;99.90;;;;;;4160114;28;20041;-52
2021/11/20 00:42:04;;;;;;;;;;;4.90;99.90;;;;;;4157855;28;20077;-52
2021/11/20 00:44:06;;;;;;;31.50;23.98;;;4.80;99.90;;;;;;4165413;28;19944;-51
2021/11/20 00:46:09;;;;;;;26.90;23.40;;;4.80;99.90;;;;;;4161079;28;20033;-52
2021/11/20 00:48:13;;;;;;;29.10;21.17;;;4.80;99.90;;;;;;4161050;28;20052;-51
2021/11/20 00:50:18;;;;;;;21.95;19.33;;;4.90;99.90;;;;;;4161400;28;20125;-51
2021/11/20 00:52:20;;;;;;;34.50;23.77;;;4.90;99.90;;;;;;4150314;28;20453;-48
2021/11/20 00:54:23;;;;;;;49.33;25.13;;;4.90;99.90;;;;;;4160753;28;20025;-52
2021/11/20 00:56:27;;;;;;;33.13;24.58;;;4.70;99.90;;;;;;4164246;28;20152;-50
2021/11/20 00:58:30;;;;;;;29.98;22.20;;;4.70;99.90;;;;;;4162486;28;20564;-52
2021/11/20 01:00:39;;;;;;;32.83;22.95;;;4.60;99.90;;;;;;4160675;28;20069;-51
2021/11/20 01:02:41;;;;;;;29.77;24.63;;;4.60;99.90;;;;;;4162861;28;20124;-50
2021/11/20 01:04:43;;;;;;;26.60;21.83;;;4.60;99.90;;;;;;4164496;28;20128;-52
2021/11/20 01:06:46;;;;;;;19.90;16.92;;;4.60;99.90;;;;;;4161939;28;20042;-51
2021/11/20 01:08:50;;;;;;;21.23;18.00;;;4.60;99.90;;;;;;4153861;28;20033;-51
2021/11/20 01:10:57;;;;;;;20.25;18.42;;;4.70;99.90;;;;;;4162270;28;20112;-52
2021/11/20 01:12:59;;;;;;;16.58;15.13;;;4.80;99.90;;;;;;4163576;28;22483;-53
2021/11/20 01:15:07;;;;;;;17.20;15.55;;;4.70;99.90;;;;;;4161805;28;20413;-52
2021/11/20 01:17:10;;;;;;;20.63;18.58;;;4.60;99.90;;;;;;4161585;28;20672;-51
2021/11/20 01:19:13;;;;;;;19.48;17.67;;;4.60;99.90;;;;;;4160890;28;20040;-52
2021/11/20 01:21:16;;;;;;;20.23;18.27;;;4.50;99.90;;;;;;4162620;28;20037;-51
2021/11/20 01:23:21;;;;;;;18.35;16.85;;;4.50;99.90;;;;;;4163443;28;20041;-51
2021/11/20 01:25:25;;;;;;;30.05;16.63;;;4.40;99.90;;;;;;4154170;28;20057;-51
2021/11/20 01:27:27;;;;;;;51.28;22.05;;;4.30;99.90;;;;;;4162872;28;20672;-51
2021/11/20 01:29:29;;;;;;;27.80;21.42;;;4.20;99.90;;;;;;4160499;28;20034;-51
2021/11/20 01:31:33;;;;;;;30.63;22.38;;;4.00;99.90;;;;;;4164296;28;20057;-51
2021/11/20 01:33:35;;;;;;;50.35;25.50;;;4.10;99.90;;;;;;4160178;28;20057;-51
2021/11/20 01:35:37;;;;;;;;;;;4.00;99.90;;;;;;4162160;28;20069;-51
2021/11/20 01:37:41;;;;;;;78.45;25.65;;;3.90;99.90;;;;;;4161765;28;20284;-49
2021/11/20 01:39:44;;;;;;;117.05;24.42;;;3.70;99.90;;;;;;4160694;28;20121;-51
2021/11/20 01:41:48;;;;;;;63.33;24.92;;;3.60;99.90;;;;;;4153226;28;20050;-51
2021/11/20 01:43:55;;;;;;;119.13;27.13;;;3.50;99.90;;;;;;4163128;28;20696;-50
2021/11/20 01:46:02;;;;;;;62.15;23.40;;;3.40;99.90;;;;;;4160919;28;20042;-51
2021/11/20 01:48:47;;;;;;;86.63;21.13;;;3.40;99.90;;;;;;4159987;28;20075;-52
2021/11/20 01:50:56;;;;;;;27.25;18.75;;;3.40;99.90;;;;;;4159707;28;20034;-51
2021/11/20 01:53:21;;;;;;;51.50;14.80;;;3.40;99.90;;;;;;4163020;28;20038;-52
2021/11/20 01:55:32;;;;;;;70.72;14.10;;;3.50;99.90;;;;;;4160089;28;20766;-51
2021/11/20 01:58:13;;;;;;;36.85;14.50;;;3.50;99.90;;;;;;4160525;28;20047;-50
2021/11/20 02:00:23;;;;;;;16.30;11.57;;;3.60;99.90;;;;;;4152440;28;20100;-52
2021/11/20 02:03:16;;;;;;;55.63;12.43;;;3.70;99.90;;;;;;4156991;28;20049;-52
2021/11/20 02:05:31;;;;;;;17.55;11.95;;;3.70;99.90;;;;;;4154282;28;20063;-52
2021/11/20 02:07:48;;;;;;;15.48;14.13;;;3.70;99.90;;;;;;4161777;28;20044;-51
2021/11/20 02:09:58;;;;;;;17.00;15.70;;;3.80;99.90;;;;;;4160027;28;20091;-51
2021/11/20 02:12:15;;;;;;;18.10;16.33;;;3.80;99.90;;;;;;4155473;28;20425;-51
2021/11/20 02:14:20;;;;;;;16.98;15.65;;;3.90;99.90;;;;;;4155212;28;20052;-52
2021/11/20 02:16:35;;;;;;;14.63;13.40;;;3.90;99.90;;;;;;4162586;28;20045;-51
2021/11/20 02:18:43;;;;;;;15.70;14.32;;;3.90;99.90;;;;;;4158861;28;20673;-52
2021/11/20 02:20:45;;;;;;;14.55;13.40;;;3.80;99.90;;;;;;4161807;28;20061;-52
2021/11/20 02:22:46;;;;;;;13.85;12.88;;;3.80;99.90;;;;;;4157946;28;20134;-52
2021/11/20 02:24:48;;;;;;;12.40;11.63;;;3.80;99.90;;;;;;4163780;28;20065;-51
2021/11/20 02:26:50;;;;;;;13.43;12.05;;;3.80;99.90;;;;;;4160078;28;20486;-52
2021/11/20 02:28:54;;;;;;;11.10;10.13;;;3.80;99.90;;;;;;4161765;28;20428;-53
2021/11/20 02:30:58;;;;;;;12.00;11.13;;;4.00;99.90;;;;;;4158022;28;20378;-52
2021/11/20 02:33:12;;;;;;;13.93;12.88;;;4.00;99.90;;;;;;4157392;28;20148;-52
2021/11/20 02:35:18;;;;;;;14.32;12.73;;;3.90;99.90;;;;;;4159475;28;20040;-52
2021/11/20 02:37:20;;;;;;;12.77;11.88;;;3.90;99.90;;;;;;4153873;28;20640;-53
2021/11/20 02:39:27;;;;;;;13.18;12.45;;;3.80;99.90;;;;;;4159446;28;20041;-52
2021/11/20 02:41:31;;;;;;;12.32;11.55;;;3.80;99.90;;;;;;4162472;28;20037;-52
2021/11/20 02:43:39;;;;;;;12.77;11.65;;;3.80;99.90;;;;;;4160236;28;20150;-52
2021/11/20 02:45:48;;;;;;;11.35;10.57;;;3.80;99.90;;;;;;4160951;28;20069;-52
2021/11/20 02:47:51;;;;;;;10.18;9.48;;;3.90;99.90;;;;;;4161837;28;20048;-52
2021/11/20 02:49:53;;;;;;;11.27;10.25;;;4.00;99.90;;;;;;4159195;28;20025;-52
2021/11/20 02:52:00;;;;;;;11.18;10.38;;;4.10;99.90;;;;;;4160359;28;20037;-52
2021/11/20 02:54:14;;;;;;;15.15;13.95;;;4.00;99.90;;;;;;4160410;28;20389;-52
2021/11/20 02:56:18;;;;;;;;;;;3.90;99.90;;;;;;4161794;28;20065;-50
2021/11/20 02:58:23;;;;;;;22.52;15.98;;;3.90;99.90;;;;;;4158306;28;19921;-52
2021/11/20 03:00:26;;;;;;;14.65;13.52;;;3.70;99.90;;;;;;4157068;28;20038;-52
2021/11/20 03:02:28;;;;;;;15.63;14.13;;;3.60;99.90;;;;;;4155419;28;20088;-51
2021/11/20 03:04:33;;;;;;;15.63;14.52;;;3.60;99.90;;;;;;4161750;28;20041;-52
2021/11/20 03:06:36;;;;;;;34.17;17.50;;;3.60;99.90;;;;;;4161210;28;20061;-51
2021/11/20 03:08:38;;;;;;;17.98;16.17;;;3.50;99.90;;;;;;4162205;28;20794;-51
2021/11/20 03:10:41;;;;;;;20.00;17.95;;;3.50;99.90;;;;;;4158277;28;20456;-51
2021/11/20 03:12:44;;;;;;;19.13;17.05;;;3.50;99.90;;;;;;4160547;28;20041;-51
2021/11/20 03:14:46;;;;;;;14.60;13.50;;;3.60;99.90;;;;;;4152789;28;20038;-52
2021/11/20 03:17:02;;;;;;;15.38;14.02;;;3.60;99.90;;;;;;4162193;28;20045;-52
2021/11/20 03:19:05;;;;;;;16.73;14.95;;;3.60;99.90;;;;;;4155317;28;20041;-51
2021/11/20 03:21:07;;;;;;;17.08;15.43;;;3.70;99.90;;;;;;4162616;28;20067;-50
2021/11/20 03:23:24;;;;;;;16.95;15.13;;;3.70;99.90;;;;;;4159182;28;20124;-51
2021/11/20 03:25:27;;;;;;;16.80;15.35;;;3.50;99.90;;;;;;4162425;28;20037;-52
2021/11/20 03:27:29;;;;;;;15.48;14.38;;;3.50;99.90;;;;;;4158661;28;20113;-50
2021/11/20 03:29:32;;;;;;;13.32;12.45;;;3.30;99.90;;;;;;4161169;28;20025;-52
2021/11/20 03:31:35;;;;;;;13.50;12.50;;;3.30;99.90;;;;;;4159053;28;20041;-52
2021/11/20 03:33:38;;;;;;;14.52;13.20;;;3.40;99.90;;;;;;4159182;28;20037;-51
2021/11/20 03:35:42;;;;;;;13.07;12.13;;;3.40;99.90;;;;;;4157745;28;20041;-51
2021/11/20 03:37:44;;;;;;;15.52;14.15;;;3.40;99.90;;;;;;4156413;28;20050;-51
2021/11/20 03:39:46;;;;;;;15.35;13.05;;;3.40;99.90;;;;;;4158027;28;20543;-52
2021/11/20 03:41:48;;;;;;;15.18;13.90;;;3.40;99.90;;;;;;4151725;28;20041;-51
2021/11/20 03:43:50;;;;;;;15.45;14.20;;;3.50;99.90;;;;;;4158666;28;20050;-51
2021/11/20 03:45:52;;;;;;;13.48;12.68;;;3.40;99.90;;;;;;4161260;28;20072;-52
2021/11/20 03:47:54;;;;;;;13.13;12.25;;;3.30;99.90;;;;;;4156956;28;20061;-51
2021/11/20 03:49:56;;;;;;;14.65;13.48;;;3.20;99.90;;;;;;4158476;28;20132;-51
2021/11/20 03:51:59;;;;;;;15.88;14.38;;;3.20;99.90;;;;;;4159526;28;20765;-51
2021/11/20 03:54:02;;;;;;;38.40;16.98;;;3.20;99.90;;;;;;4158520;28;20045;-50
2021/11/20 03:56:04;;;;;;;17.13;15.82;;;3.00;99.90;;;;;;4160170;28;20076;-51
2021/11/20 03:58:08;;;;;;;19.20;15.95;;;2.90;99.90;;;;;;4149102;28;20379;-51
2021/11/20 04:00:14;;;;;;;69.05;22.83;;;2.90;99.90;;;;;;4159244;28;20056;-51
2021/11/20 04:02:17;;;;;;;71.35;27.85;;;2.60;99.90;;;;;;4160130;28;20042;-51
2021/11/20 04:04:19;;;;;;;99.05;23.25;;;2.40;99.90;;;;;;4160528;28;21519;-52
2021/11/20 04:06:21;;;;;;;58.22;23.25;;;2.30;99.90;;;;;;4152187;28;20100;-53
2021/11/20 04:08:26;;;;;;;54.42;24.38;;;2.30;99.90;;;;;;4160038;28;20037;-51
2021/11/20 04:10:28;;;;;;;58.97;22.65;;;2.30;99.90;;;;;;4150070;28;20040;-52
2021/11/20 04:12:30;;;;;;;63.42;21.77;;;2.30;99.90;;;;;;4158821;28;20120;-52
2021/11/20 04:14:32;;;;;;;59.63;22.40;;;2.30;99.90;;;;;;4149783;28;20041;-52
2021/11/20 04:16:35;;;;;;;26.67;21.67;;;2.40;99.90;;;;;;4160340;28;20396;-52
2021/11/20 04:18:38;;;;;;;;;;;2.50;99.90;;;;;;4158517;28;20113;-52
2021/11/20 04:20:41;;;;;;;20.60;19.30;;;2.60;99.90;;;;;;4160165;28;19961;-52
2021/11/20 04:22:44;;;;;;;24.00;21.50;;;2.60;99.90;;;;;;4159435;28;20045;-51
2021/11/20 04:24:46;;;;;;;;;;;2.60;99.90;;;;;;4153444;28;20046;-52
2021/11/20 04:26:48;;;;;;;17.83;16.92;;;2.60;99.90;;;;;;4149377;28;19960;-52
2021/11/20 04:28:51;;;;;;;15.13;14.43;;;2.60;99.90;;;;;;4158015;28;20433;-51
2021/11/20 04:30:53;;;;;;;15.77;15.27;;;2.70;99.90;;;;;;4149620;28;20061;-52
2021/11/20 04:32:55;;;;;;;16.52;15.63;;;2.70;99.90;;;;;;4159364;28;20034;-52
2021/11/20 04:34:57;;;;;;;14.40;13.70;;;2.80;99.90;;;;;;4159480;28;20076;-52
2021/11/20 04:36:59;;;;;;;15.48;14.73;;;2.90;99.90;;;;;;4159981;28;20112;-52
2021/11/20 04:39:04;;;;;;;14.27;13.40;;;2.90;99.90;;;;;;4158762;28;20112;-52
2021/11/20 04:41:06;;;;;;;14.27;13.48;;;2.90;99.90;;;;;;4152836;28;20107;-52
2021/11/20 04:43:09;;;;;;;12.10;11.20;;;3.00;99.90;;;;;;4157489;28;20127;-53
2021/11/20 04:45:16;;;;;;;10.18;9.57;;;3.00;99.90;;;;;;4161680;28;20068;-52
2021/11/20 04:47:18;;;;;;;11.00;10.50;;;3.00;99.90;;;;;;4158786;28;20128;-52
2021/11/20 04:49:20;;;;;;;10.88;10.10;;;3.10;99.90;;;;;;4152160;28;20072;-52
2021/11/20 04:51:24;;;;;;;11.02;10.35;;;3.00;99.90;;;;;;4157135;28;20034;-52
2021/11/20 04:53:28;;;;;;;12.07;11.25;;;3.00;99.90;;;;;;4160163;28;20069;-51
2021/11/20 04:55:31;;;;;;;11.60;10.88;;;3.00;99.90;;;;;;4158551;28;20524;-53
2021/11/20 04:57:33;;;;;;;18.30;16.95;;;3.00;99.90;;;;;;4154907;28;20442;-52
2021/11/20 04:59:35;;;;;;;13.85;13.00;;;2.80;99.90;;;;;;4152973;28;20069;-52
2021/11/20 05:01:38;;;;;;;;;;;2.80;99.90;;;;;;4159855;28;20069;-52
2021/11/20 05:03:41;;;;;;;11.47;11.07;;;2.70;99.90;;;;;;4158181;28;20439;-52
2021/11/20 05:05:46;;;;;;;11.38;10.90;;;2.70;99.90;;;;;;4160155;28;20401;-52
2021/11/20 05:07:48;;;;;;;12.70;12.15;;;2.70;99.90;;;;;;4158103;28;20101;-52
2021/11/20 05:09:53;;;;;;;14.98;14.07;;;2.60;99.90;;;;;;4160194;28;20044;-52
2021/11/20 05:11:55;;;;;;;12.95;12.45;;;2.60;99.90;;;;;;4157745;28;20037;-51
2021/11/20 05:13:58;;;;;;;;;;;2.60;99.90;;;;;;4160808;28;20037;-52
2021/11/20 05:16:01;;;;;;;11.27;10.77;;;2.70;99.90;;;;;;4157936;28;20020;-51
2021/11/20 05:18:03;;;;;;;;;;;2.90;99.90;;;;;;4158125;28;20042;-51
2021/11/20 05:20:06;;;;;;;11.45;10.70;;;3.00;99.90;;;;;;4155557;28;19928;-52
2021/11/20 05:22:08;;;;;;;;;;;2.90;99.90;;;;;;4155432;28;20069;-52
2021/11/20 05:24:10;;;;;;;13.68;13.07;;;2.80;99.90;;;;;;4156074;28;19925;-52
2021/11/20 05:26:13;;;;;;;13.38;12.50;;;2.80;99.90;;;;;;4164493;28;20432;-49
2021/11/20 05:28:16;;;;;;;14.98;14.15;;;2.90;99.90;;;;;;4161066;28;20072;-52
2021/11/20 05:30:25;;;;;;;13.77;12.82;;;2.90;99.90;;;;;;4159830;28;20045;-51
2021/11/20 05:32:28;;;;;;;12.60;11.50;;;2.80;99.90;;;;;;4155220;28;20068;-52
2021/11/20 05:34:30;;;;;;;10.70;10.30;;;2.80;99.90;;;;;;4162940;28;20099;-51
2021/11/20 05:36:35;;;;;;;12.20;11.57;;;2.70;99.90;;;;;;4160431;28;20033;-51
2021/11/20 05:38:37;;;;;;;11.52;10.68;;;2.60;99.90;;;;;;4161569;28;20041;-52
2021/11/20 05:40:41;;;;;;;10.68;10.20;;;2.50;99.90;;;;;;4160358;28;21023;-51
2021/11/20 05:42:50;;;;;;;11.68;11.18;;;2.40;99.90;;;;;;4163819;28;20045;-50
2021/11/20 05:44:52;;;;;;;9.80;9.30;;;2.30;99.90;;;;;;4161598;28;20083;-51
2021/11/20 05:46:59;;;;;;;14.43;13.48;;;2.40;99.90;;;;;;4152634;28;20034;-52
2021/11/20 05:49:01;;;;;;;13.98;13.18;;;2.40;99.90;;;;;;4160984;28;20037;-52
2021/11/20 05:51:03;;;;;;;12.43;11.88;;;2.50;99.90;;;;;;4157910;28;20641;-51
2021/11/20 05:53:25;;;;;;;12.13;11.52;;;2.50;99.90;;;;;;4161975;28;20036;-51
2021/11/20 05:55:31;;;;;;;15.32;13.95;;;2.50;99.90;;;;;;4162403;28;20037;-51
2021/11/20 05:57:33;;;;;;;12.68;12.00;;;2.40;99.90;;;;;;4160191;28;20464;-51
2021/11/20 05:59:36;;;;;;;12.77;11.70;;;2.50;99.90;;;;;;4151757;28;20046;-52
2021/11/20 06:01:38;;;;;;;11.50;11.20;;;2.40;99.90;;;;;;4158118;28;20049;-51
2021/11/20 06:03:40;;;;;;;34.85;14.18;;;2.40;99.90;;;;;;4152967;28;20494;-52
2021/11/20 06:05:43;;;;;;;20.90;19.50;;;2.40;99.90;;;;;;4161721;28;20402;-52
2021/11/20 06:07:45;;;;;;;16.38;15.77;;;2.30;99.90;;;;;;4158764;28;20470;-52
2021/11/20 06:09:47;;;;;;;16.45;15.65;;;2.30;99.90;;;;;;4161481;28;20037;-52
2021/11/20 06:11:49;;;;;;;15.13;14.52;;;2.20;99.90;;;;;;4161887;28;20083;-51
2021/11/20 06:13:52;;;;;;;19.25;13.80;;;2.20;99.90;;;;;;4161744;28;20037;-51
2021/11/20 06:15:54;;;;;;;22.25;20.92;;;2.20;99.90;;;;;;4162026;28;20070;-52
2021/11/20 06:17:56;;;;;;;21.52;20.13;;;2.40;99.90;;;;;;4160119;28;20133;-52
2021/11/20 06:19:58;;;;;;;19.52;18.55;;;2.40;99.90;;;;;;4159338;28;20046;-51
2021/11/20 06:22:00;;;;;;;29.20;26.38;;;2.30;99.90;;;;;;4162103;28;20073;-52
2021/11/20 06:24:05;;;;;;;29.48;26.85;;;2.20;99.90;;;;;;4160619;28;20033;-52
2021/11/20 06:26:08;;;;;;;25.48;23.48;;;2.10;99.90;;;;;;4163339;28;20076;-51
2021/11/20 06:28:10;;;;;;;19.42;17.95;;;2.10;99.90;;;;;;4160275;28;20048;-52
2021/11/20 06:30:16;;;;;;;18.42;17.60;;;2.00;99.90;;;;;;4163254;28;20049;-52
2021/11/20 06:32:18;;;;;;;20.80;19.67;;;2.10;99.90;;;;;;4160758;28;20539;-51
2021/11/20 06:34:21;;;;;;;17.55;16.52;;;2.20;99.90;;;;;;4162128;28;20104;-51
2021/11/20 06:36:24;;;;;;;18.42;17.17;;;2.20;99.90;;;;;;4158241;28;20083;-49
2021/11/20 06:38:28;;;;;;;14.15;13.35;;;2.20;99.90;;;;;;4162447;28;20079;-52
2021/11/20 06:40:33;;;;;;;17.67;16.35;;;2.40;99.90;;;;;;4161706;28;20409;-52
2021/11/20 06:42:37;;;;;;;15.00;13.93;;;2.30;99.90;;;;;;4159790;28;20099;-52
2021/11/20 06:44:39;;;;;;;13.25;12.45;;;2.30;99.90;;;;;;4156340;28;20401;-52
2021/11/20 06:46:41;;;;;;;12.82;12.23;;;2.30;99.90;;;;;;4162749;28;20149;-51
2021/11/20 06:48:45;;;;;;;19.08;14.82;;;2.50;99.90;;;;;;4161005;28;20116;-52
2021/11/20 06:50:47;;;;;;;20.95;19.20;;;2.50;99.90;;;;;;4162348;28;20041;-52
2021/11/20 06:52:49;;;;;;;21.50;20.02;;;2.30;99.90;;;;;;4159430;28;20116;-51
2021/11/20 06:54:52;;;;;;;;;;;2.20;99.90;;;;;;4163241;28;20041;-52
2021/11/20 06:57:04;;;;;;;21.40;19.73;;;2.10;99.90;;;;;;4159406;28;19964;-51
2021/11/20 07:01:11;;;;;;;19.58;18.38;;;2.00;99.90;;;;;;4159552;28;20049;-52
2021/11/20 07:03:26;;;;;;;21.58;19.77;;;2.10;99.90;;;;;;4163268;28;20041;-52
2021/11/20 07:05:31;;;;;;;14.35;13.02;;;2.10;99.90;;;;;;4159707;28;20394;-51
2021/11/20 07:07:34;;;;;;;19.52;18.35;;;2.30;99.90;;;;;;4162537;28;20037;-52
2021/11/20 07:09:37;;;;;;;18.65;17.55;;;2.30;99.90;;;;;;4159654;28;20048;-53
2021/11/20 07:11:39;;;;;;;19.50;18.27;;;2.40;99.90;;;;;;4162334;28;20045;-51
2021/11/20 07:13:42;;;;;;;18.33;17.30;;;2.40;99.90;;;;;;4159887;28;20056;-51
2021/11/20 07:15:44;;;;;;;18.08;17.00;;;2.40;99.90;;;;;;4162196;28;20095;-52
2021/11/20 07:17:47;;;;;;;;;;;2.40;99.90;;;;;;4161282;28;20506;-53
2021/11/20 07:19:49;;;;;;;20.58;19.38;;;2.30;99.90;;;;;;4157682;28;19921;-52
2021/11/20 07:21:51;;;;;;;22.77;21.25;;;2.30;99.90;;;;;;4159920;28;20041;-52
2021/11/20 07:23:55;;;;;;;24.70;22.67;;;2.40;99.90;;;;;;4161268;28;20038;-55
2021/11/20 07:25:58;;;;;;;21.63;20.15;;;2.40;99.90;;;;;;4160782;28;20075;-55
2021/11/20 07:28:00;;;;;;;22.15;20.63;;;2.50;99.90;;;;;;4161144;28;20052;-55
2021/11/20 07:30:06;;;;;;;18.73;17.67;;;2.50;99.90;;;;;;4160518;28;20382;-54
2021/11/20 07:32:08;;;;;;;21.60;20.13;;;2.50;99.90;;;;;;4161528;28;20038;-55
2021/11/20 07:34:11;;;;;;;19.30;18.30;;;2.60;99.90;;;;;;4161783;28;20064;-54
2021/11/20 07:36:14;;;;;;;12.32;11.88;;;2.70;99.90;;;;;;4161908;28;20405;-53
2021/11/20 07:38:21;;;;;;;13.35;12.85;;;2.80;99.90;;;;;;4160033;28;20038;-53
2021/11/20 07:40:26;;;;;;;11.45;11.10;;;2.90;99.90;;;;;;4158079;28;20038;-54
2021/11/20 07:42:28;;;;;;;9.73;9.35;;;3.10;99.90;;;;;;4160128;28;20809;-53
2021/11/20 07:44:32;;;;;;;10.95;10.45;;;3.20;99.90;;;;;;4157874;28;20501;-53
2021/11/20 07:46:36;;;;;;;8.63;8.32;;;3.30;99.90;;;;;;4160565;28;20033;-54
2021/11/20 07:48:39;;;;;;;8.10;7.80;;;3.50;99.90;;;;;;4160324;28;20041;-55
2021/11/20 07:50:44;;;;;;;8.52;8.02;;;3.60;99.90;;;;;;4160765;28;20452;-55
2021/11/20 07:52:46;;;;;;;7.82;7.63;;;3.70;99.90;;;;;;4159190;28;20034;-55
2021/11/20 07:54:48;;;;;;;8.15;7.82;;;3.80;99.90;;;;;;4161228;28;20033;-56
2021/11/20 07:56:50;;;;;;;9.23;8.65;;;3.90;99.90;;;;;;4161553;28;20041;-56
2021/11/20 07:58:53;;;;;;;8.95;8.35;;;3.90;99.90;;;;;;4161199;28;20067;-56
2021/11/20 08:00:55;;;;;;;;;;;4.00;99.90;;;;;;4157830;28;20055;-56
2021/11/20 08:02:57;;;;;;;7.90;7.50;;;4.00;99.90;;;;;;4161694;28;20376;-56
2021/11/20 08:05:00;;;;;;;7.95;7.65;;;4.10;99.90;;;;;;4158829;28;20058;-56
2021/11/20 08:07:06;;;;;;;7.80;7.47;;;4.10;99.90;;;;;;4160972;28;20529;-56
2021/11/20 08:09:10;;;;;;;9.60;9.23;;;4.20;99.90;;;;;;4160111;28;20594;-57
2021/11/20 08:11:12;;;;;;;7.50;7.20;;;4.30;99.90;;;;;;4159248;28;20449;-56
2021/11/20 08:13:15;;;;;;;11.32;10.57;;;4.40;99.90;;;;;;4160012;28;20026;-56
2021/11/20 08:15:17;;;;;;;;;;;4.40;99.90;;;;;;4160249;28;20064;-56
2021/11/20 08:17:19;;;;;;;10.32;9.48;;;4.50;99.90;;;;;;4154602;28;19921;-56
2021/11/20 08:19:21;;;;;;;12.05;11.25;;;4.60;99.90;;;;;;4160049;28;20044;-56
2021/11/20 08:21:25;;;;;;;11.85;11.15;;;4.60;99.90;;;;;;4158507;28;20072;-56
2021/11/20 08:23:27;;;;;;;12.45;11.50;;;4.60;99.90;;;;;;4160670;28;20038;-56
2021/11/20 08:25:30;;;;;;;13.90;12.80;;;4.70;99.90;;;;;;4160005;28;20030;-56
2021/11/20 08:27:32;;;;;;;14.00;13.05;;;4.70;99.90;;;;;;4159264;28;20041;-57
2021/11/20 08:29:37;;;;;;;14.75;13.32;;;4.70;99.90;;;;;;4159746;28;20072;-56
2021/11/20 08:31:44;;;;;;;12.70;11.90;;;4.90;99.90;;;;;;4160807;28;20049;-56
2021/11/20 08:33:46;;;;;;;11.30;10.60;;;4.90;99.90;;;;;;4159486;28;20038;-55
2021/11/20 08:35:49;;;;;;;11.55;10.93;;;4.90;99.90;;;;;;4157532;28;20474;-56
2021/11/20 08:37:52;;;;;;;9.20;8.80;;;5.00;99.90;;;;;;4158281;28;20377;-56
2021/11/20 08:39:56;;;;;;;10.77;10.05;;;5.10;99.90;;;;;;4161229;28;20077;-56
2021/11/20 08:41:58;;;;;;;10.13;9.55;;;5.10;99.90;;;;;;4159762;28;20041;-56
2021/11/20 08:44:00;;;;;;;;;;;5.20;99.90;;;;;;4161083;28;20049;-56
2021/11/20 08:46:05;;;;;;;9.88;9.27;;;5.30;99.90;;;;;;4158001;28;19932;-56
2021/11/20 08:48:07;;;;;;;11.25;10.68;;;5.40;99.90;;;;;;4161427;28;20532;-56
2021/11/20 08:50:12;;;;;;;13.27;9.25;;;5.50;99.90;;;;;;4158221;28;20485;-56
2021/11/20 08:52:14;;;;;;;23.02;18.83;;;5.60;99.90;;;;;;4161365;28;20029;-55
2021/11/20 08:54:17;;;;;;;11.13;10.45;;;5.80;99.90;;;;;;4157341;28;20069;-55
2021/11/20 08:56:20;;;;;;;8.60;6.88;;;5.90;99.90;;;;;;4160779;28;20037;-56
2021/11/20 08:58:23;;;;;;;8.65;8.13;;;6.00;99.90;;;;;;4157679;28;20060;-56
2021/11/20 09:00:38;;;;;;;;;;;6.00;99.90;;;;;;4165286;28;20062;-56
2021/11/20 09:02:54;;;;;;;10.00;9.07;;;6.00;99.90;;;;;;4161067;28;19921;-56
2021/11/20 09:05:29;;;;;;;9.50;8.90;;;6.10;99.90;;;;;;4163422;28;20100;-56
2021/11/20 09:07:34;;;;;;;8.52;7.70;;;6.20;99.90;;;;;;4161850;28;20052;-56
2021/11/20 09:09:46;;;;;;;9.55;8.85;;;6.30;99.90;;;;;;4163155;28;20580;-56
2021/11/20 09:11:50;;;;;;;8.52;8.20;;;6.50;99.90;;;;;;4162417;28;20065;-55
2021/11/20 09:14:14;;;;;;;7.13;6.82;;;6.60;99.90;;;;;;4164431;28;20048;-56
2021/11/20 09:16:20;;;;;;;4.45;4.35;;;6.80;99.90;;;;;;4163756;28;20672;-56
2021/11/20 09:18:24;;;;;;;6.70;6.50;;;6.90;99.90;;;;;;4160778;28;20033;-55
2021/11/20 09:20:27;;;;;;;7.90;7.38;;;7.00;99.90;;;;;;4164468;28;20042;-56
2021/11/20 09:22:30;;;;;;;7.93;7.35;;;7.10;99.90;;;;;;4162343;28;20119;-56
2021/11/20 09:24:35;;;;;;;7.30;6.93;;;7.20;99.90;;;;;;4164101;28;20041;-56
2021/11/20 09:26:58;;;;;;;4.93;4.78;;;7.20;99.90;;;;;;4161980;28;20068;-56
2021/11/20 09:29:01;;;;;;;5.80;5.60;;;7.40;99.90;;;;;;4164545;28;20072;-55
2021/11/20 09:31:06;;;;;;;4.47;4.38;;;7.50;99.90;;;;;;4161864;28;20397;-55
2021/11/20 09:33:08;;;;;;;2.88;2.78;;;7.70;99.90;;;;;;4163313;28;20042;-56
2021/11/20 09:35:11;;;;;;;8.52;4.82;;;7.80;99.90;;;;;;4161712;28;20048;-54
2021/11/20 09:37:13;;;;;;;6.10;5.70;;;7.90;99.90;;;;;;4164107;28;20041;-55
2021/11/20 09:39:17;;;;;;;4.82;4.72;;;8.10;99.90;;;;;;4162572;28;20072;-55
2021/11/20 09:41:51;;;;;;;6.50;6.28;;;8.30;99.90;;;;;;4162372;28;20042;-55
2021/11/20 09:43:58;;;;;;;12.68;11.45;;;8.40;99.90;;;;;;4160421;28;20366;-56
2021/11/20 09:46:10;;;;;;;6.32;6.03;;;8.60;99.90;;;;;;4159006;28;20454;-55
2021/11/20 09:48:21;;;;;;;5.88;5.57;;;8.80;99.90;;;;;;4163469;28;20080;-55
2021/11/20 09:50:49;;;;;;;5.05;4.93;;;9.20;99.90;;;;;;4161913;28;20045;-56
2021/11/20 09:52:52;;;;;;;5.47;5.18;;;9.50;99.90;;;;;;4147967;28;21652;-56
2021/11/20 09:54:54;;;;;;;4.45;4.10;;;9.70;99.90;;;;;;4158459;28;20449;-56
2021/11/20 09:57:10;;;;;;;2.60;2.60;;;9.90;99.90;;;;;;4162599;28;20552;-55
2021/11/20 09:59:41;;;;;;;2.53;2.42;;;10.00;99.90;;;;;;4160881;28;20096;-56
2021/11/20 10:02:12;;;;;;;3.20;3.10;;;10.20;99.90;;;;;;4157768;28;20112;-56
2021/11/20 10:04:45;;;;;;;6.85;6.45;;;10.40;99.90;;;;;;4162018;28;20669;-55
2021/11/20 10:06:51;;;;;;;7.55;6.95;;;10.60;99.90;;;;;;4160498;28;20094;-55
2021/11/20 10:09:23;;;;;;;7.57;7.07;;;10.80;99.90;;;;;;4161942;28;20124;-56
2021/11/20 10:11:31;;;;;;;6.20;5.88;;;10.90;99.90;;;;;;4159019;28;20067;-55
2021/11/20 10:13:49;;;;;;;6.32;6.13;;;11.10;99.90;;;;;;4162480;28;20071;-55
2021/11/20 10:16:44;;;;;;;4.07;3.83;;;11.40;99.90;;;;;;4160734;28;20049;-54
2021/11/20 10:19:07;;;;;;;6.72;6.30;;;11.80;99.90;;;;;;4156818;28;20049;-56
2021/11/20 10:21:09;;;;;;;5.40;5.07;;;12.20;99.90;;;;;;4161549;28;20572;-56
2021/11/20 10:23:11;;;;;;;6.28;5.97;;;12.40;99.90;;;;;;4155888;28;20559;-56
2021/11/20 10:25:31;;;;;;;6.15;4.95;;;12.60;99.90;;;;;;4160606;28;20037;-56
2021/11/20 10:27:48;;;;;;;4.95;4.60;;;12.90;99.90;;;;;;4157856;28;20076;-56
2021/11/20 10:29:57;;;;;;;12.20;5.07;;;13.00;99.90;;;;;;4145770;28;20054;-56
2021/11/20 10:32:33;;;;;;;5.97;5.75;;;13.10;99.90;;;;;;4159460;28;20087;-56
2021/11/20 10:34:47;;;;;;;10.30;9.20;;;13.30;99.90;;;;;;4158254;28;20053;-56
2021/11/20 10:36:54;;;;;;;14.20;12.90;;;13.40;99.90;;;;;;4160188;28;20089;-56
2021/11/20 10:39:19;;;;;;;11.75;10.68;;;13.70;99.90;;;;;;4157963;28;20076;-56
2021/11/20 10:41:38;;;;;;;33.28;19.42;;;14.00;99.90;;;;;;4155185;28;20091;-54
2021/11/20 10:43:43;;;;;;;13.90;11.98;;;14.40;99.90;;;;;;4157214;28;20103;-56
2021/11/20 10:45:51;;;;;;;38.30;20.02;;;14.60;99.90;;;;;;4150461;28;20041;-56
2021/11/20 10:47:56;;;;;;;19.75;14.00;;;14.70;99.90;;;;;;4159714;28;20045;-56
2021/11/20 10:50:07;;;;;;;20.80;14.57;;;15.10;99.90;;;;;;4156026;28;20120;-56
2021/11/20 10:52:24;;;;;;;15.73;12.55;;;15.20;99.90;;;;;;4153617;28;20114;-56
2021/11/20 10:54:42;;;;;;;10.38;9.27;;;15.20;99.90;;;;;;4151989;28;20038;-56
2021/11/20 10:57:01;;;;;;;11.05;9.88;;;15.40;99.90;;;;;;4161347;28;20072;-56